createdAt,value
2023-02-07T00:01:07.937Z,65.48
2023-02-07T00:03:35.939Z,65.65
2023-02-07T00:06:08.312Z,65.83
2023-02-07T00:11:37.868Z,65.47
2023-02-07T00:14:07.642Z,65.71
2023-02-07T00:16:35.953Z,65.70
2023-02-07T00:19:04.042Z,65.53
2023-02-07T00:21:32.407Z,65.47
2023-02-07T00:24:00.340Z,65.58
2023-02-07T00:26:28.518Z,65.47
2023-02-07T00:28:57.092Z,65.35
2023-02-07T00:31:27.550Z,65.60
2023-02-07T00:33:56.286Z,65.35
2023-02-07T00:36:25.315Z,65.37
2023-02-07T00:38:56.911Z,65.57
2023-02-07T00:41:24.891Z,65.55
2023-02-07T00:43:52.920Z,65.88
2023-02-07T00:46:21.086Z,65.61
2023-02-07T00:48:50.582Z,65.59
2023-02-07T00:51:18.557Z,65.29
2023-02-07T00:53:48.117Z,65.91
2023-02-07T00:56:17.051Z,65.71
2023-02-07T00:58:45.274Z,65.50
2023-02-07T01:01:13.678Z,65.67
2023-02-07T01:03:41.633Z,65.52
2023-02-07T01:06:11.259Z,65.47
2023-02-07T01:08:39.421Z,65.43
2023-02-07T01:11:08.663Z,65.52
2023-02-07T01:13:36.788Z,65.29
2023-02-07T01:16:05.354Z,65.40
2023-02-07T01:18:33.386Z,65.30
2023-02-07T01:21:01.476Z,65.37
2023-02-07T01:23:30.757Z,65.21
2023-02-07T01:25:58.675Z,65.32
2023-02-07T01:28:27.133Z,65.29
2023-02-07T01:30:55.166Z,65.10
2023-02-07T01:33:23.161Z,65.11
2023-02-07T01:35:51.235Z,65.26
2023-02-07T01:38:19.413Z,65.22
2023-02-07T01:40:48.899Z,65.08
2023-02-07T01:43:18.813Z,65.18
2023-02-07T01:45:46.954Z,64.71
2023-02-07T01:48:16.491Z,65.08
2023-02-07T01:53:30.239Z,64.90
2023-02-07T01:56:03.573Z,64.73
2023-02-07T01:58:31.729Z,64.64
2023-02-07T02:01:00.253Z,64.89
2023-02-07T02:03:28.483Z,64.89
2023-02-07T02:05:56.809Z,64.67
2023-02-07T02:08:25.546Z,64.85
2023-02-07T02:11:03.812Z,64.65
2023-02-07T02:13:35.439Z,64.80
2023-02-07T02:16:06.281Z,64.66
2023-02-07T02:18:40.044Z,64.81
2023-02-07T02:21:25.620Z,64.60
2023-02-07T02:24:12.890Z,64.51
2023-02-07T02:26:47.125Z,64.40
2023-02-07T02:29:29.887Z,64.58
2023-02-07T02:32:16.120Z,64.26
2023-02-07T02:34:48.383Z,64.33
2023-02-07T02:37:21.250Z,64.34
2023-02-07T02:39:53.666Z,64.28
2023-02-07T02:42:27.253Z,64.34
2023-02-07T02:44:58.423Z,64.60
2023-02-07T02:47:28.514Z,64.52
2023-02-07T02:49:58.155Z,64.30
2023-02-07T02:52:40.455Z,64.37
2023-02-07T02:55:16.204Z,64.24
2023-02-07T02:57:53.117Z,64.46
2023-02-07T03:00:34.254Z,64.44
2023-02-07T03:03:16.658Z,64.43
2023-02-07T03:05:51.547Z,64.26
2023-02-07T03:08:26.640Z,64.45
2023-02-07T03:10:58.942Z,64.32
2023-02-07T03:13:30.300Z,64.25
2023-02-07T03:16:04.860Z,64.22
2023-02-07T03:18:40.523Z,64.24
2023-02-07T03:21:13.818Z,64.36
2023-02-07T03:23:42.274Z,64.26
2023-02-07T03:26:10.592Z,64.43
2023-02-07T03:28:40.585Z,64.31
2023-02-07T03:31:10.307Z,64.33
2023-02-07T03:33:39.470Z,64.17
2023-02-07T03:36:11.331Z,64.07
2023-02-07T03:38:40.622Z,64.21
2023-02-07T03:46:41.651Z,64.19
2023-02-07T03:49:09.753Z,64.12
2023-02-07T03:51:37.984Z,64.29
2023-02-07T03:54:07.443Z,64.17
2023-02-07T03:56:35.311Z,64.44
2023-02-07T03:59:03.233Z,64.32
2023-02-07T04:01:31.244Z,64.85
2023-02-07T04:03:59.199Z,64.73
2023-02-07T04:06:27.288Z,64.77
2023-02-07T04:08:55.419Z,65.10
2023-02-07T04:11:24.792Z,64.90
2023-02-07T04:13:52.926Z,64.87
2023-02-07T04:16:20.933Z,64.97
2023-02-07T04:18:49.083Z,64.70
2023-02-07T04:21:17.062Z,64.55
2023-02-07T04:23:45.106Z,64.33
2023-02-07T04:26:13.144Z,64.18
2023-02-07T04:28:42.675Z,64.42
2023-02-07T04:31:10.797Z,64.41
2023-02-07T04:33:40.297Z,64.25
2023-02-07T04:36:08.743Z,64.44
2023-02-07T04:38:36.795Z,64.26
2023-02-07T04:41:05.589Z,64.12
2023-02-07T04:43:34.654Z,64.01
2023-02-07T04:46:04.642Z,63.98
2023-02-07T04:48:32.763Z,64.04
2023-02-07T04:51:00.874Z,64.27
2023-02-07T04:53:29.085Z,63.92
2023-02-07T04:55:57.004Z,63.88
2023-02-07T04:58:25.115Z,63.91
2023-02-07T05:00:53.820Z,63.72
2023-02-07T05:03:23.453Z,63.60
2023-02-07T05:05:54.156Z,63.68
2023-02-07T05:08:22.845Z,63.31
2023-02-07T05:10:53.245Z,63.61
2023-02-07T05:13:21.284Z,63.57
2023-02-07T05:15:49.506Z,63.47
2023-02-07T05:18:17.783Z,63.27
2023-02-07T05:20:47.162Z,63.26
2023-02-07T05:23:15.743Z,63.34
2023-02-07T05:25:43.706Z,63.54
2023-02-07T05:28:11.761Z,63.55
2023-02-07T05:30:39.973Z,63.64
2023-02-07T05:33:07.332Z,63.67
2023-02-07T05:35:36.580Z,63.63
2023-02-07T05:38:07.758Z,63.60
2023-02-07T05:40:36.079Z,63.55
2023-02-07T05:43:04.905Z,63.73
2023-02-07T05:45:33.048Z,63.54
2023-02-07T05:48:01.175Z,63.72
2023-02-07T05:50:29.461Z,63.51
2023-02-07T05:52:57.511Z,63.45
2023-02-07T05:55:27.205Z,63.44
2023-02-07T05:57:55.274Z,63.34
2023-02-07T06:00:23.587Z,63.35
2023-02-07T06:02:51.617Z,62.94
2023-02-07T06:05:21.686Z,63.18
2023-02-07T06:07:49.758Z,62.98
2023-02-07T06:10:17.706Z,62.87
2023-02-07T06:12:47.147Z,62.98
2023-02-07T06:15:15.242Z,63.14
2023-02-07T06:17:43.553Z,62.67
2023-02-07T06:20:12.261Z,62.61
2023-02-07T06:22:40.414Z,62.75
2023-02-07T06:25:11.962Z,62.67
2023-02-07T06:27:40.589Z,62.69
2023-02-07T06:30:12.748Z,62.68
2023-02-07T06:32:40.932Z,62.46
2023-02-07T06:35:09.420Z,62.04
2023-02-07T06:37:37.370Z,62.25
2023-02-07T06:40:05.814Z,62.28
2023-02-07T06:42:33.928Z,61.98
2023-02-07T06:45:02.165Z,61.93
2023-02-07T06:47:32.828Z,61.82
2023-02-07T06:50:01.080Z,61.27
2023-02-07T06:52:29.270Z,61.69
2023-02-07T06:54:57.368Z,61.78
2023-02-07T06:57:25.455Z,61.88
2023-02-07T06:59:53.609Z,61.96
2023-02-07T07:02:21.625Z,61.69
2023-02-07T07:04:51.410Z,61.40
2023-02-07T07:07:19.370Z,61.49
2023-02-07T07:15:34.471Z,60.91
2023-02-07T07:18:02.530Z,61.31
2023-02-07T07:20:32.135Z,61.20
2023-02-07T07:23:00.095Z,61.02
2023-02-07T07:25:28.280Z,60.40
2023-02-07T07:27:56.381Z,60.87
2023-02-07T07:30:24.420Z,61.02
2023-02-07T07:32:53.038Z,61.02
2023-02-07T07:35:21.235Z,60.88
2023-02-07T07:37:50.599Z,60.70
2023-02-07T07:40:18.645Z,60.55
2023-02-07T07:42:46.721Z,60.38
2023-02-07T07:45:14.771Z,60.21
2023-02-07T07:47:42.925Z,60.52
2023-02-07T07:50:10.943Z,60.10
2023-02-07T07:52:39.072Z,59.69
2023-02-07T07:55:09.298Z,59.72
2023-02-07T07:57:37.901Z,59.94
2023-02-07T08:00:06.561Z,59.98
2023-02-07T08:02:34.607Z,59.24
2023-02-07T08:05:02.664Z,58.26
2023-02-07T08:07:31.006Z,58.86
2023-02-07T08:09:59.178Z,58.91
2023-02-07T08:12:28.526Z,57.98
2023-02-07T08:14:56.869Z,57.65
2023-02-07T08:17:25.083Z,58.21
2023-02-07T08:19:53.256Z,57.52
2023-02-07T08:22:21.841Z,58.03
2023-02-07T08:24:49.879Z,57.53
2023-02-07T08:27:18.313Z,57.32
2023-02-07T08:29:47.725Z,56.97
2023-02-07T08:32:15.906Z,57.32
2023-02-07T08:34:45.017Z,56.86
2023-02-07T08:37:13.415Z,56.96
2023-02-07T08:39:41.738Z,57.13
2023-02-07T08:42:10.033Z,57.45
2023-02-07T08:44:38.479Z,57.49
2023-02-07T08:47:08.059Z,57.16
2023-02-07T08:49:36.356Z,56.96
2023-02-07T08:52:04.583Z,57.21
2023-02-07T08:54:32.971Z,57.13
2023-02-07T08:57:01.093Z,56.30
2023-02-07T08:59:29.219Z,56.98
2023-02-07T09:01:57.417Z,56.70
2023-02-07T09:04:27.077Z,56.64
2023-02-07T09:06:55.191Z,56.68
2023-02-07T09:09:23.290Z,55.83
2023-02-07T09:11:51.434Z,55.76
2023-02-07T09:14:21.518Z,56.30
2023-02-07T09:16:49.620Z,56.08
2023-02-07T09:19:17.776Z,56.16
2023-02-07T09:21:47.314Z,55.81
2023-02-07T09:24:15.407Z,55.37
2023-02-07T09:26:43.582Z,55.65
2023-02-07T09:29:12.506Z,55.78
2023-02-07T09:31:40.599Z,55.83
2023-02-07T09:34:08.666Z,53.69
2023-02-07T09:36:37.057Z,53.93
2023-02-07T09:39:07.146Z,54.38
2023-02-07T09:41:42.025Z,55.14
2023-02-07T09:44:16.562Z,55.14
2023-02-07T09:46:48.702Z,54.80
2023-02-07T09:49:22.508Z,54.55
2023-02-07T09:51:52.272Z,54.95
2023-02-07T09:54:24.332Z,54.66
2023-02-07T09:56:52.800Z,53.47
2023-02-07T10:01:58.894Z,54.20
2023-02-07T10:04:31.857Z,54.12
2023-02-07T10:07:01.034Z,54.04
2023-02-07T10:09:31.969Z,54.33
2023-02-07T10:12:05.817Z,53.51
2023-02-07T10:14:44.100Z,54.02
2023-02-07T10:17:31.033Z,53.89
2023-02-07T10:20:04.677Z,54.15
2023-02-07T10:22:37.516Z,54.12
2023-02-07T10:25:16.468Z,53.89
2023-02-07T10:27:51.532Z,53.76
2023-02-07T10:30:22.818Z,54.07
2023-02-07T10:32:52.332Z,53.97
2023-02-07T10:35:21.848Z,53.66
2023-02-07T10:37:52.003Z,53.91
2023-02-07T10:40:24.445Z,54.08
2023-02-07T10:42:57.599Z,54.18
2023-02-07T10:45:25.728Z,54.65
2023-02-07T10:47:53.622Z,54.58
2023-02-07T10:50:29.763Z,54.46
2023-02-07T10:52:59.184Z,53.90
2023-02-07T10:55:39.369Z,54.11
2023-02-07T10:58:21.222Z,54.06
2023-02-07T11:00:51.784Z,53.78
2023-02-07T11:03:21.202Z,53.78
2023-02-07T11:05:55.592Z,54.03
2023-02-07T11:08:26.907Z,54.46
2023-02-07T11:10:57.809Z,54.07
2023-02-07T11:13:28.147Z,54.40
2023-02-07T11:15:58.359Z,54.52
2023-02-07T11:18:38.874Z,54.89
2023-02-07T11:21:08.680Z,54.63
2023-02-07T11:23:36.703Z,54.61
2023-02-07T11:26:06.599Z,54.60
2023-02-07T11:28:35.093Z,54.64
2023-02-07T11:31:07.107Z,54.71
2023-02-07T11:33:36.502Z,54.56
2023-02-07T11:36:11.591Z,54.12
2023-02-07T11:38:40.487Z,54.64
2023-02-07T11:41:17.240Z,54.53
2023-02-07T11:43:53.409Z,54.58
2023-02-07T11:46:21.504Z,54.49
2023-02-07T11:48:51.244Z,54.43
2023-02-07T11:51:20.049Z,54.32
2023-02-07T11:53:50.045Z,54.78
2023-02-07T11:56:25.175Z,54.54
2023-02-07T11:58:54.353Z,54.29
2023-02-07T12:01:25.380Z,54.42
2023-02-07T12:03:59.033Z,54.27
2023-02-07T12:06:31.220Z,54.29
2023-02-07T12:08:59.751Z,54.04
2023-02-07T12:11:34.147Z,54.15
2023-02-07T12:14:05.102Z,53.87
2023-02-07T12:16:36.416Z,54.49
2023-02-07T12:19:06.833Z,54.36
2023-02-07T12:21:37.536Z,54.57
2023-02-07T12:24:07.285Z,54.35
2023-02-07T12:26:40.740Z,54.28
2023-02-07T12:29:14.898Z,54.30
2023-02-07T12:31:48.563Z,54.36
2023-02-07T12:34:20.932Z,54.86
2023-02-07T12:36:52.801Z,55.14
2023-02-07T12:42:31.507Z,54.92
2023-02-07T12:45:01.138Z,55.38
2023-02-07T12:47:36.029Z,55.03
2023-02-07T12:50:14.982Z,54.88
2023-02-07T12:52:50.920Z,54.72
2023-02-07T12:55:24.786Z,54.58
2023-02-07T12:57:58.687Z,54.63
2023-02-07T13:00:30.375Z,55.06
2023-02-07T13:03:06.501Z,54.63
2023-02-07T13:05:46.394Z,55.36
2023-02-07T13:08:21.339Z,55.53
2023-02-07T13:10:55.467Z,54.85
2023-02-07T13:13:26.698Z,55.15
2023-02-07T13:15:58.309Z,54.88
2023-02-07T13:18:35.660Z,54.95
2023-02-07T13:21:09.189Z,55.30
2023-02-07T13:23:38.660Z,55.46
2023-02-07T13:26:10.551Z,55.38
2023-02-07T13:28:44.070Z,55.37
2023-02-07T13:31:15.234Z,55.46
2023-02-07T13:33:43.647Z,55.90
2023-02-07T13:36:15.890Z,55.99
2023-02-07T13:38:55.742Z,55.83
2023-02-07T13:41:42.813Z,56.00
2023-02-07T13:44:20.502Z,55.98
2023-02-07T13:47:03.363Z,55.87
2023-02-07T13:49:38.407Z,56.08
2023-02-07T13:52:11.864Z,56.16
2023-02-07T13:54:43.536Z,56.39
2023-02-07T13:57:37.857Z,56.40
2023-02-07T14:00:08.922Z,56.34
2023-02-07T14:02:42.352Z,56.40
2023-02-07T14:05:12.144Z,56.45
2023-02-07T14:07:40.222Z,56.64
2023-02-07T14:10:09.367Z,56.62
2023-02-07T14:12:40.964Z,56.38
2023-02-07T14:15:23.746Z,56.58
2023-02-07T14:18:00.391Z,56.93
2023-02-07T14:20:49.612Z,56.64
2023-02-07T14:23:19.179Z,56.94
2023-02-07T14:25:47.268Z,57.30
2023-02-07T14:28:32.105Z,57.46
2023-02-07T14:31:21.903Z,57.42
2023-02-07T14:34:04.750Z,57.69
2023-02-07T14:36:34.351Z,58.26
2023-02-07T14:39:04.607Z,58.30
2023-02-07T14:41:34.239Z,58.53
2023-02-07T14:44:09.631Z,58.44
2023-02-07T14:46:40.114Z,58.46
2023-02-07T14:49:12.824Z,58.45
2023-02-07T14:51:43.756Z,58.45
2023-02-07T14:54:16.751Z,58.20
2023-02-07T14:57:02.576Z,58.01
2023-02-07T14:59:34.800Z,58.36
2023-02-07T15:02:17.702Z,58.75
2023-02-07T15:04:45.785Z,59.72
2023-02-07T15:07:15.213Z,59.68
2023-02-07T15:09:46.185Z,60.39
2023-02-07T15:12:26.990Z,59.97
2023-02-07T15:14:57.248Z,59.72
2023-02-07T15:17:42.615Z,59.16
2023-02-07T15:20:15.721Z,59.64
2023-02-07T15:22:48.449Z,59.75
2023-02-07T15:25:16.823Z,60.10
2023-02-07T15:27:59.058Z,60.50
2023-02-07T15:30:27.400Z,60.62
2023-02-07T15:32:55.769Z,60.31
2023-02-07T15:35:26.933Z,60.28
2023-02-07T15:37:57.172Z,60.01
2023-02-07T15:40:26.786Z,60.46
2023-02-07T15:42:56.537Z,60.14
2023-02-07T15:45:25.901Z,60.29
2023-02-07T15:47:58.620Z,59.98
2023-02-07T15:50:27.774Z,60.37
2023-02-07T15:52:59.402Z,60.23
2023-02-07T15:55:31.982Z,60.10
2023-02-07T15:57:59.999Z,60.18
2023-02-07T16:00:29.638Z,60.64
2023-02-07T16:02:59.479Z,60.83
2023-02-07T16:05:29.092Z,60.82
2023-02-07T16:07:59.238Z,61.26
2023-02-07T16:10:34.951Z,61.65
2023-02-07T16:13:03.383Z,62.31
2023-02-07T16:15:33.429Z,61.85
2023-02-07T16:18:02.228Z,62.20
2023-02-07T16:20:31.380Z,61.81
2023-02-07T16:23:02.049Z,61.21
2023-02-07T16:25:31.243Z,61.36
2023-02-07T16:27:59.390Z,61.37
2023-02-07T16:30:30.621Z,61.55
2023-02-07T16:32:58.603Z,61.43
2023-02-07T16:35:27.466Z,61.00
2023-02-07T16:37:55.596Z,61.32
2023-02-07T16:40:26.861Z,61.22
2023-02-07T16:42:56.024Z,61.41
2023-02-07T16:45:25.266Z,61.52
2023-02-07T16:47:53.632Z,61.67
2023-02-07T16:56:00.089Z,61.60
2023-02-07T16:58:29.624Z,61.77
2023-02-07T17:00:57.970Z,61.92
2023-02-07T17:03:26.257Z,61.77
2023-02-07T17:05:54.260Z,61.66
2023-02-07T17:08:27.871Z,62.58
2023-02-07T17:10:59.282Z,62.64
2023-02-07T17:13:29.008Z,62.51
2023-02-07T17:15:58.391Z,62.64
2023-02-07T17:18:26.566Z,62.73
2023-02-07T17:20:55.837Z,62.79
2023-02-07T17:23:25.404Z,62.94
2023-02-07T17:25:53.498Z,63.10
2023-02-07T17:28:21.646Z,63.76
2023-02-07T17:30:51.828Z,63.55
2023-02-07T17:33:19.928Z,63.91
2023-02-07T17:35:47.952Z,64.73
2023-02-07T17:38:16.000Z,64.89
2023-02-07T17:40:44.036Z,64.65
2023-02-07T17:43:12.201Z,64.81
2023-02-07T17:45:40.143Z,64.63
2023-02-07T17:48:12.458Z,64.69
2023-02-07T17:50:42.272Z,64.93
2023-02-07T17:53:11.168Z,64.67
2023-02-07T17:55:39.735Z,64.83
2023-02-07T17:58:08.136Z,64.75
2023-02-07T18:00:38.275Z,64.67
2023-02-07T18:03:07.100Z,64.42
2023-02-07T18:05:36.609Z,64.26
2023-02-07T18:08:04.797Z,64.65
2023-02-07T18:10:33.751Z,65.09
2023-02-07T18:13:02.008Z,64.89
2023-02-07T18:15:30.338Z,65.91
2023-02-07T18:17:58.781Z,65.79
2023-02-07T18:20:28.048Z,65.99
2023-02-07T18:22:58.123Z,65.23
2023-02-07T18:25:27.147Z,64.41
2023-02-07T18:27:55.409Z,64.29
2023-02-07T18:30:24.353Z,63.93
2023-02-07T18:32:52.412Z,63.89
2023-02-07T18:35:21.464Z,64.13
2023-02-07T18:37:49.422Z,63.80
2023-02-07T18:40:19.069Z,63.93
2023-02-07T18:42:47.286Z,63.92
2023-02-07T18:45:15.447Z,63.86
2023-02-07T18:47:43.741Z,63.96
2023-02-07T18:50:13.102Z,63.75
2023-02-07T18:52:41.288Z,63.83
2023-02-07T18:55:09.822Z,63.66
2023-02-07T18:57:39.261Z,64.10
2023-02-07T19:00:09.596Z,64.28
2023-02-07T19:02:37.977Z,64.81
2023-02-07T19:05:06.343Z,64.68
2023-02-07T19:07:34.696Z,63.97
2023-02-07T19:10:03.097Z,63.70
2023-02-07T19:12:31.066Z,64.33
2023-02-07T19:15:00.509Z,63.72
2023-02-07T19:17:29.011Z,63.87
2023-02-07T19:19:56.943Z,63.88
2023-02-07T19:22:35.352Z,63.80
2023-02-07T19:25:04.082Z,63.63
2023-02-07T19:27:32.044Z,63.95
2023-02-07T19:30:01.457Z,63.70
2023-02-07T19:32:29.461Z,63.83
2023-02-07T19:34:57.569Z,64.11
2023-02-07T19:37:25.475Z,64.41
2023-02-07T19:39:56.432Z,64.16
2023-02-07T19:42:25.514Z,64.33
2023-02-07T19:44:53.587Z,64.12
2023-02-07T19:47:23.227Z,63.98
2023-02-07T19:49:52.516Z,64.54
2023-02-07T19:52:20.681Z,64.62
2023-02-07T19:54:48.640Z,64.66
2023-02-07T19:57:17.143Z,64.54
2023-02-07T19:59:45.717Z,63.70
2023-02-07T20:02:14.319Z,64.16
2023-02-07T20:04:44.022Z,63.89
2023-02-07T20:07:12.174Z,64.01
2023-02-07T20:09:40.162Z,64.22
2023-02-07T20:12:08.684Z,64.08
2023-02-07T20:14:36.828Z,63.96
2023-02-07T20:17:04.967Z,63.91
2023-02-07T20:19:32.920Z,63.74
2023-02-07T20:22:02.520Z,63.71
2023-02-07T20:24:30.630Z,63.82
2023-02-07T20:26:58.644Z,63.94
2023-02-07T20:35:18.372Z,63.93
2023-02-07T20:37:47.834Z,64.60
2023-02-07T20:40:16.095Z,64.63
2023-02-07T20:42:44.137Z,63.86
2023-02-07T20:45:12.407Z,63.76
2023-02-07T20:47:40.406Z,64.36
2023-02-07T20:50:08.596Z,64.98
2023-02-07T20:52:37.821Z,64.85
2023-02-07T20:55:08.516Z,64.70
2023-02-07T20:57:36.619Z,64.54
2023-02-07T21:00:05.252Z,64.25
2023-02-07T21:02:33.587Z,64.96
2023-02-07T21:05:01.602Z,64.56
2023-02-07T21:07:29.809Z,64.67
2023-02-07T21:09:57.936Z,64.96
2023-02-07T21:12:27.598Z,64.79
2023-02-07T21:14:57.383Z,64.91
2023-02-07T21:17:25.578Z,65.02
2023-02-07T21:19:53.502Z,65.17
2023-02-07T21:22:23.200Z,64.76
2023-02-07T21:24:51.321Z,65.18
2023-02-07T21:27:19.407Z,64.94
2023-02-07T21:29:48.793Z,65.25
2023-02-07T21:32:17.034Z,64.45
2023-02-07T21:34:45.407Z,64.87
2023-02-07T21:37:13.377Z,64.42
2023-02-07T21:39:41.421Z,65.22
2023-02-07T21:42:09.405Z,65.46
2023-02-07T21:44:37.631Z,64.95
2023-02-07T21:47:07.209Z,64.95
2023-02-07T21:49:35.050Z,64.63
2023-02-07T21:52:03.204Z,64.58
2023-02-07T21:54:31.184Z,65.14
2023-02-07T21:56:59.083Z,64.47
2023-02-07T21:59:27.398Z,64.64
2023-02-07T22:01:55.603Z,65.24
2023-02-07T22:04:25.062Z,64.76
2023-02-07T22:06:53.090Z,64.38
2023-02-07T22:09:22.090Z,64.82
2023-02-07T22:11:50.476Z,64.61
2023-02-07T22:14:19.132Z,64.31
2023-02-07T22:16:47.285Z,64.39
2023-02-07T22:19:17.354Z,64.47
2023-02-07T22:21:46.687Z,64.00
2023-02-07T22:24:15.530Z,65.11
2023-02-07T22:26:43.428Z,65.26
2023-02-07T22:29:11.514Z,65.46
2023-02-07T22:31:40.510Z,65.00
2023-02-07T22:34:09.478Z,64.61
2023-02-07T22:36:38.918Z,64.78
2023-02-07T22:39:09.122Z,65.15
2023-02-07T22:41:37.450Z,65.13
2023-02-07T22:44:05.529Z,64.87
2023-02-07T22:46:33.764Z,64.96
2023-02-07T22:49:01.878Z,65.23
2023-02-07T22:51:30.776Z,65.03
2023-02-07T22:53:59.770Z,65.00
2023-02-07T22:56:29.636Z,64.79
2023-02-07T22:58:57.766Z,64.62
2023-02-07T23:01:26.683Z,64.85
2023-02-07T23:03:55.206Z,65.00
2023-02-07T23:06:23.770Z,65.03
2023-02-07T23:08:52.190Z,64.92
2023-02-07T23:11:21.861Z,65.46
2023-02-07T23:13:51.775Z,65.00
2023-02-07T23:16:21.016Z,65.37
2023-02-07T23:18:49.201Z,65.49
2023-02-07T23:21:17.981Z,65.56
2023-02-07T23:23:46.603Z,65.46
2023-02-07T23:26:15.705Z,65.39
2023-02-07T23:28:44.256Z,65.22
2023-02-07T23:31:15.108Z,65.64
2023-02-07T23:33:43.374Z,65.77
2023-02-07T23:36:11.857Z,65.84
2023-02-07T23:38:40.234Z,65.57
2023-02-07T23:41:08.785Z,65.23
2023-02-07T23:43:36.926Z,65.62
2023-02-07T23:46:04.974Z,65.60
2023-02-07T23:48:37.764Z,65.67
2023-02-07T23:51:07.043Z,65.43
2023-02-07T23:53:35.425Z,65.32
2023-02-07T23:56:04.665Z,65.61
2023-02-07T23:58:33.107Z,65.35
